createdAt,value
2022-10-11T00:00:55.404Z,101346.66
2022-10-11T00:03:23.581Z,101343.91
2022-10-11T00:05:53.826Z,101358.69
2022-10-11T00:08:22.244Z,101360.72
2022-10-11T00:10:58.641Z,101370.84
2022-10-11T00:13:27.229Z,101374.09
2022-10-11T00:15:56.169Z,101378.56
2022-10-11T00:18:25.177Z,101374.63
2022-10-11T00:21:03.458Z,101385.09
2022-10-11T00:23:31.738Z,101394.63
2022-10-11T00:26:03.437Z,101395.34
2022-10-11T00:28:34.854Z,101395.50
2022-10-11T00:31:05.307Z,101396.72
2022-10-11T00:33:33.854Z,101409.16
2022-10-11T00:36:02.371Z,101423.00
2022-10-11T00:38:32.075Z,101412.38
2022-10-11T00:41:01.944Z,101413.69
2022-10-11T00:43:32.374Z,101433.44
2022-10-11T00:46:08.135Z,101433.63
2022-10-11T00:48:41.454Z,101446.28
2022-10-11T00:51:17.926Z,101450.34
2022-10-11T00:53:49.042Z,101455.50
2022-10-11T00:56:24.802Z,101463.06
2022-10-11T00:58:54.770Z,101465.88
2022-10-11T01:01:23.023Z,101463.59
2022-10-11T01:03:51.250Z,101470.28
2022-10-11T01:06:19.408Z,101481.47
2022-10-11T01:08:48.076Z,101475.09
2022-10-11T01:11:22.205Z,101481.00
2022-10-11T01:14:05.356Z,101478.41
2022-10-11T01:16:39.080Z,101481.28
2022-10-11T01:19:24.100Z,101483.00
2022-10-11T01:22:02.085Z,101486.88
2022-10-11T01:24:58.250Z,101489.03
2022-10-11T01:27:37.948Z,101495.34
2022-10-11T01:30:24.104Z,101502.41
2022-10-11T01:33:03.001Z,101506.63
2022-10-11T01:35:39.065Z,101513.19
2022-10-11T01:38:12.288Z,101522.19
2022-10-11T01:40:46.625Z,101519.31
2022-10-11T01:43:16.460Z,101532.41
2022-10-11T01:45:48.893Z,101532.16
2022-10-11T01:48:17.148Z,101531.25
2022-10-11T01:50:47.683Z,101540.16
2022-10-11T01:53:35.691Z,101548.94
2022-10-11T01:56:20.231Z,101554.78
2022-10-11T01:59:03.513Z,101559.88
2022-10-11T02:01:44.248Z,101560.97
2022-10-11T02:04:21.907Z,101561.66
2022-10-11T02:06:57.710Z,101564.94
2022-10-11T02:09:33.345Z,101571.94
2022-10-11T02:12:07.468Z,101571.47
2022-10-11T02:14:40.805Z,101578.41
2022-10-11T02:17:14.930Z,101582.78
2022-10-11T02:19:48.219Z,101584.75
2022-10-11T02:22:22.974Z,101590.09
2022-10-11T02:24:56.417Z,101597.41
2022-10-11T02:27:28.615Z,101601.47
2022-10-11T02:30:01.108Z,101595.84
2022-10-11T02:32:32.275Z,101593.22
2022-10-11T02:35:02.268Z,101603.06
2022-10-11T02:37:33.621Z,101600.66
2022-10-11T02:40:07.669Z,101620.22
2022-10-11T02:42:44.444Z,101610.84
2022-10-11T02:45:18.285Z,101612.66
2022-10-11T02:47:48.980Z,101618.31
2022-10-11T02:50:17.573Z,101610.69
2022-10-11T02:52:45.686Z,101614.47
2022-10-11T02:55:13.850Z,101621.56
2022-10-11T02:57:42.161Z,101626.13
2022-10-11T03:00:11.804Z,101633.81
2022-10-11T03:02:40.116Z,101638.16
2022-10-11T03:05:10.258Z,101648.47
2022-10-11T03:07:38.402Z,101649.91
2022-10-11T03:10:07.414Z,101647.19
2022-10-11T03:12:35.523Z,101654.09
2022-10-11T03:15:03.980Z,101663.63
2022-10-11T03:17:36.614Z,101666.22
2022-10-11T03:20:06.439Z,101660.56
2022-10-11T03:22:35.923Z,101675.94
2022-10-11T03:25:04.988Z,101676.06
2022-10-11T03:27:34.067Z,101690.03
2022-10-11T03:30:02.618Z,101686.66
2022-10-11T03:32:31.017Z,101707.19
2022-10-11T03:34:59.213Z,101701.09
2022-10-11T03:37:27.656Z,101709.09
2022-10-11T03:39:57.155Z,101713.41
2022-10-11T03:42:25.336Z,101716.63
2022-10-11T03:44:53.459Z,101729.25
2022-10-11T03:47:21.671Z,101725.88
2022-10-11T03:50:08.090Z,101731.00
2022-10-11T03:52:36.833Z,101741.34
2022-10-11T03:55:07.253Z,101744.84
2022-10-11T03:57:35.446Z,101750.97
2022-10-11T04:00:03.714Z,101748.81
2022-10-11T04:02:38.317Z,101752.81
2022-10-11T04:05:07.822Z,101753.94
2022-10-11T04:07:36.127Z,101767.06
2022-10-11T04:10:06.501Z,101762.28
2022-10-11T04:12:35.412Z,101771.06
2022-10-11T04:15:03.629Z,101773.09
2022-10-11T04:17:31.989Z,101779.28
2022-10-11T04:20:00.149Z,101778.72
2022-10-11T04:22:28.287Z,101780.19
2022-10-11T04:24:56.505Z,101788.28
2022-10-11T04:27:28.418Z,101791.44
2022-10-11T04:29:56.574Z,101794.34
2022-10-11T04:32:24.776Z,101793.47
2022-10-11T04:34:53.196Z,101792.69
2022-10-11T04:37:21.500Z,101804.13
2022-10-11T04:39:49.705Z,101799.63
2022-10-11T04:42:17.848Z,101805.19
2022-10-11T04:45:05.594Z,101806.06
2022-10-11T04:47:33.729Z,101808.50
2022-10-11T04:50:01.855Z,101809.66
2022-10-11T04:52:29.955Z,101820.22
2022-10-11T04:54:58.089Z,101820.22
2022-10-11T04:57:26.228Z,101816.91
2022-10-11T04:59:55.779Z,101832.19
2022-10-11T05:02:23.990Z,101829.59
2022-10-11T05:04:52.186Z,101830.00
2022-10-11T05:07:20.314Z,101835.97
2022-10-11T05:09:48.551Z,101847.41
2022-10-11T05:12:25.184Z,101855.59
2022-10-11T05:14:53.379Z,101854.88
2022-10-11T05:17:23.058Z,101861.00
2022-10-11T05:19:51.233Z,101865.41
2022-10-11T05:22:19.501Z,101866.38
2022-10-11T05:24:47.642Z,101874.00
2022-10-11T05:27:15.782Z,101879.56
2022-10-11T05:29:44.341Z,101882.81
2022-10-11T05:32:12.477Z,101885.78
2022-10-11T05:34:41.920Z,101886.66
2022-10-11T05:37:10.045Z,101899.50
2022-10-11T05:39:38.168Z,101904.94
2022-10-11T05:42:09.718Z,101901.09
2022-10-11T05:44:38.281Z,101910.59
2022-10-11T05:47:06.585Z,101913.81
2022-10-11T05:49:34.703Z,101917.38
2022-10-11T05:52:06.586Z,101918.34
2022-10-11T05:54:34.707Z,101918.94
2022-10-11T05:57:02.828Z,101927.16
2022-10-11T05:59:31.267Z,101923.84
2022-10-11T06:01:59.416Z,101935.56
2022-10-11T06:04:27.568Z,101924.13
2022-10-11T06:06:55.870Z,101936.84
2022-10-11T06:09:25.336Z,101931.88
2022-10-11T06:11:53.463Z,101924.00
2022-10-11T06:14:21.924Z,101922.69
2022-10-11T06:16:50.063Z,101927.28
2022-10-11T06:19:18.457Z,101923.63
2022-10-11T06:21:47.813Z,101925.75
2022-10-11T06:24:16.263Z,101920.25
2022-10-11T06:26:45.755Z,101926.16
2022-10-11T06:29:13.883Z,101928.66
2022-10-11T06:31:42.095Z,101921.69
2022-10-11T06:34:10.208Z,101919.97
2022-10-11T06:36:38.342Z,101929.47
2022-10-11T06:39:06.493Z,101918.91
2022-10-11T06:41:34.725Z,101924.50
2022-10-11T06:44:04.193Z,101930.31
2022-10-11T06:46:33.672Z,101924.16
2022-10-11T06:49:01.927Z,101924.28
2022-10-11T06:51:30.835Z,101929.03
2022-10-11T06:54:01.772Z,101930.03
2022-10-11T06:56:31.174Z,101928.03
2022-10-11T06:59:00.611Z,101923.09
2022-10-11T07:01:30.156Z,101930.53
2022-10-11T07:04:00.722Z,101929.06
2022-10-11T07:06:30.805Z,101932.13
2022-10-11T07:09:01.326Z,101923.63
2022-10-11T07:11:29.684Z,101924.63
2022-10-11T07:13:59.332Z,101924.34
2022-10-11T07:16:28.700Z,101927.28
2022-10-11T07:19:00.711Z,101927.75
2022-10-11T07:21:30.925Z,101916.75
2022-10-11T07:23:59.141Z,101910.88
2022-10-11T07:26:27.466Z,101919.53
2022-10-11T07:28:55.744Z,101918.34
2022-10-11T07:31:25.789Z,101916.81
2022-10-11T07:33:54.476Z,101920.25
2022-10-11T07:36:24.286Z,101916.19
2022-10-11T07:38:52.766Z,101921.50
2022-10-11T07:41:21.289Z,101922.09
2022-10-11T07:43:50.891Z,101931.00
2022-10-11T07:46:19.610Z,101927.38
2022-10-11T07:48:47.762Z,101920.06
2022-10-11T07:51:18.043Z,101932.56
2022-10-11T07:54:07.255Z,101930.47
2022-10-11T07:56:35.962Z,101938.38
2022-10-11T07:59:04.745Z,101943.78
2022-10-11T08:01:33.968Z,101943.19
2022-10-11T08:04:02.353Z,101942.63
2022-10-11T08:06:32.670Z,101946.41
2022-10-11T08:09:02.826Z,101940.44
2022-10-11T08:11:32.704Z,101939.63
2022-10-11T08:14:01.366Z,101943.41
2022-10-11T08:16:29.516Z,101944.09
2022-10-11T08:18:57.792Z,101941.94
2022-10-11T08:21:26.866Z,101938.31
2022-10-11T08:23:55.343Z,101940.81
2022-10-11T08:26:25.112Z,101945.25
2022-10-11T08:28:53.328Z,101946.47
2022-10-11T08:31:21.535Z,101942.59
2022-10-11T08:33:50.257Z,101949.59
2022-10-11T08:36:18.363Z,101953.06
2022-10-11T08:38:46.473Z,101949.91
2022-10-11T08:41:38.730Z,101953.44
2022-10-11T08:44:37.430Z,101960.22
2022-10-11T08:47:22.366Z,101958.63
2022-10-11T08:49:51.592Z,101957.56
2022-10-11T08:52:24.682Z,101957.47
2022-10-11T08:54:56.946Z,101966.69
2022-10-11T08:57:30.714Z,101975.44
2022-10-11T09:00:01.535Z,101976.88
2022-10-11T09:02:56.072Z,101976.53
2022-10-11T09:05:28.984Z,101976.25
2022-10-11T09:08:03.801Z,101984.06
2022-10-11T09:10:58.138Z,101983.53
2022-10-11T09:13:43.870Z,101984.09
2022-10-11T09:16:26.700Z,101987.72
2022-10-11T09:19:17.311Z,101994.47
2022-10-11T09:21:56.061Z,101989.22
2022-10-11T09:24:37.201Z,101999.94
2022-10-11T09:27:18.817Z,101987.69
2022-10-11T09:29:58.313Z,101997.22
2022-10-11T09:32:32.201Z,101988.84
2022-10-11T09:35:11.629Z,101990.50
2022-10-11T09:37:45.938Z,101988.13
2022-10-11T09:40:34.114Z,101996.75
2022-10-11T09:43:02.240Z,101990.59
2022-10-11T09:45:31.778Z,101999.50
2022-10-11T09:48:03.190Z,102003.63
2022-10-11T09:50:33.691Z,101999.25
2022-10-11T09:53:04.824Z,102000.75
2022-10-11T09:55:36.668Z,102007.94
2022-10-11T09:58:06.397Z,102010.22
2022-10-11T10:00:36.449Z,102008.38
2022-10-11T10:03:05.708Z,102005.78
2022-10-11T10:05:36.857Z,102007.69
2022-10-11T10:08:24.285Z,102015.44
2022-10-11T10:11:01.878Z,102011.38
2022-10-11T10:13:41.197Z,102020.94
2022-10-11T10:16:21.401Z,102012.50
2022-10-11T10:18:53.583Z,102018.34
2022-10-11T10:21:30.726Z,102031.34
2022-10-11T10:24:03.219Z,102024.72
2022-10-11T10:26:32.600Z,102026.78
2022-10-11T10:29:05.142Z,102027.91
2022-10-11T10:32:01.979Z,102024.94
2022-10-11T10:34:32.437Z,102027.63
2022-10-11T10:37:07.469Z,102032.06
2022-10-11T10:39:42.047Z,102031.84
2022-10-11T10:42:16.337Z,102035.34
2022-10-11T10:44:48.388Z,102038.88
2022-10-11T10:47:26.543Z,102033.31
2022-10-11T10:50:03.251Z,102044.59
2022-10-11T10:52:47.623Z,102038.94
2022-10-11T10:55:24.696Z,102045.16
2022-10-11T10:58:09.653Z,102042.41
2022-10-11T11:00:44.212Z,102038.97
2022-10-11T11:03:22.819Z,102051.13
2022-10-11T11:06:00.372Z,102060.38
2022-10-11T11:08:53.685Z,102047.53
2022-10-11T11:11:49.204Z,102051.69
2022-10-11T11:14:28.780Z,102056.41
2022-10-11T11:17:03.046Z,102044.06
2022-10-11T11:19:43.986Z,102053.84
2022-10-11T11:22:21.240Z,102052.16
2022-10-11T11:25:01.017Z,102066.44
2022-10-11T11:27:46.997Z,102065.53
2022-10-11T11:30:21.066Z,102058.25
2022-10-11T11:32:58.496Z,102066.06
2022-10-11T11:35:33.262Z,102063.56
2022-10-11T11:38:10.452Z,102071.06
2022-10-11T11:40:42.577Z,102073.75
2022-10-11T11:43:19.208Z,102081.56
2022-10-11T11:45:51.014Z,102073.16
2022-10-11T11:48:21.253Z,102080.41
2022-10-11T11:50:58.000Z,102076.09
2022-10-11T11:53:41.771Z,102071.84
2022-10-11T11:56:18.227Z,102071.50
2022-10-11T11:58:55.115Z,102073.13
2022-10-11T12:01:31.595Z,102084.00
2022-10-11T12:04:05.711Z,102074.00
2022-10-11T12:06:47.793Z,102076.47
2022-10-11T12:09:23.416Z,102070.53
2022-10-11T12:11:55.629Z,102080.06
2022-10-11T12:14:37.121Z,102063.09
2022-10-11T12:17:20.401Z,102067.03
2022-10-11T12:20:11.746Z,102069.50
2022-10-11T12:22:53.721Z,102076.06
2022-10-11T12:25:34.617Z,102079.84
2022-10-11T12:28:23.919Z,102087.69
2022-10-11T12:30:54.569Z,102077.03
2022-10-11T12:33:25.376Z,102078.72
2022-10-11T12:36:07.349Z,102075.63
2022-10-11T12:38:40.108Z,102073.00
2022-10-11T12:41:39.347Z,102073.81
2022-10-11T12:44:10.370Z,102077.84
2022-10-11T12:47:15.911Z,102079.44
2022-10-11T12:50:07.009Z,102074.16
2022-10-11T12:52:42.988Z,102080.09
2022-10-11T12:55:31.010Z,102070.56
2022-10-11T12:58:38.583Z,102075.34
2022-10-11T13:01:25.247Z,102075.09
2022-10-11T13:04:14.453Z,102076.34
2022-10-11T13:06:56.508Z,102078.84
2022-10-11T13:09:30.416Z,102076.69
2022-10-11T13:12:06.400Z,102067.19
2022-10-11T13:14:38.253Z,102061.75
2022-10-11T13:17:09.421Z,102063.31
2022-10-11T13:22:19.384Z,102057.69
2022-10-11T13:24:47.607Z,102062.78
2022-10-11T13:27:22.290Z,102070.22
2022-10-11T13:29:52.434Z,102060.97
2022-10-11T13:32:23.750Z,102071.31
2022-10-11T13:37:31.234Z,102058.28
2022-10-11T13:39:59.710Z,102060.69
2022-10-11T13:42:33.067Z,102067.09
2022-10-11T13:45:01.928Z,102070.59
2022-10-11T13:47:32.685Z,102076.91
2022-10-11T13:50:11.111Z,102077.25
2022-10-11T13:52:54.064Z,102071.38
2022-10-11T13:55:31.591Z,102071.06
2022-10-11T13:58:03.825Z,102068.91
2022-10-11T14:00:34.587Z,102080.53
2022-10-11T14:03:06.270Z,102076.25
2022-10-11T14:05:37.717Z,102071.88
2022-10-11T14:08:08.503Z,102061.97
2022-10-11T14:10:37.244Z,102067.31
2022-10-11T14:13:22.324Z,102072.94
2022-10-11T14:16:00.623Z,102070.75
2022-10-11T14:18:37.764Z,102063.34
2022-10-11T14:21:25.525Z,102067.28
2022-10-11T14:23:55.094Z,102066.41
2022-10-11T14:26:24.292Z,102070.22
2022-10-11T14:28:58.803Z,102071.91
2022-10-11T14:31:30.708Z,102063.22
2022-10-11T14:33:59.106Z,102063.63
2022-10-11T14:36:27.560Z,102063.41
2022-10-11T14:38:55.821Z,102062.13
2022-10-11T14:41:24.061Z,102063.31
2022-10-11T14:43:53.204Z,102058.63
2022-10-11T14:46:25.053Z,102059.13
2022-10-11T14:48:55.849Z,102054.25
2022-10-11T14:51:29.963Z,102060.66
2022-10-11T14:53:59.220Z,102057.59
2022-10-11T14:56:27.507Z,102064.75
2022-10-11T14:58:55.653Z,102076.38
2022-10-11T15:01:25.671Z,102064.78
2022-10-11T15:03:53.837Z,102061.72
2022-10-11T15:06:24.276Z,102066.72
2022-10-11T15:08:52.600Z,102064.03
2022-10-11T15:11:22.933Z,102061.69
2022-10-11T15:13:51.735Z,102063.41
2022-10-11T15:16:22.225Z,102055.25
2022-10-11T15:18:52.015Z,102051.66
2022-10-11T15:21:22.044Z,102046.88
2022-10-11T15:23:51.734Z,102039.59
2022-10-11T15:26:22.225Z,102031.53
2022-10-11T15:28:51.117Z,102021.41
2022-10-11T15:31:19.785Z,102020.06
2022-10-11T15:33:48.405Z,102009.56
2022-10-11T15:36:20.599Z,102008.81
2022-10-11T15:38:49.702Z,102007.59
2022-10-11T15:41:20.430Z,102005.34
2022-10-11T15:43:50.156Z,102000.19
2022-10-11T15:46:20.127Z,102006.41
2022-10-11T15:48:49.210Z,102009.66
2022-10-11T15:51:19.110Z,102008.72
2022-10-11T15:53:47.768Z,102000.53
2022-10-11T15:56:19.322Z,102011.00
2022-10-11T15:58:47.953Z,102004.75
2022-10-11T16:01:18.774Z,102002.03
2022-10-11T16:03:48.760Z,102007.22
2022-10-11T16:06:19.041Z,102000.56
2022-10-11T16:08:47.906Z,102006.56
2022-10-11T16:11:16.349Z,102003.78
2022-10-11T16:13:45.113Z,101993.28
2022-10-11T16:16:13.387Z,102007.22
2022-10-11T16:18:41.656Z,102005.34
2022-10-11T16:21:11.792Z,102005.72
2022-10-11T16:23:41.247Z,102009.63
2022-10-11T16:26:13.681Z,102018.09
2022-10-11T16:28:42.887Z,102018.28
2022-10-11T16:31:13.132Z,102014.25
2022-10-11T16:33:45.940Z,102016.91
2022-10-11T16:36:36.350Z,102018.47
2022-10-11T16:39:10.445Z,102011.75
2022-10-11T16:41:39.077Z,102024.44
2022-10-11T16:44:08.089Z,102019.91
2022-10-11T16:46:36.269Z,102025.22
2022-10-11T16:49:05.250Z,102020.47
2022-10-11T16:51:33.487Z,102027.34
2022-10-11T16:54:01.917Z,102021.75
2022-10-11T16:56:37.359Z,102026.03
2022-10-11T16:59:08.737Z,102033.38
2022-10-11T17:01:37.836Z,102038.84
2022-10-11T17:04:06.691Z,102028.53
2022-10-11T17:06:34.909Z,102034.63
2022-10-11T17:09:03.397Z,102032.06
2022-10-11T17:11:33.060Z,102036.00
2022-10-11T17:14:02.732Z,102040.84
2022-10-11T17:16:30.881Z,102044.22
2022-10-11T17:18:59.031Z,102042.66
2022-10-11T17:21:27.183Z,102055.34
2022-10-11T17:23:55.314Z,102045.19
2022-10-11T17:26:26.487Z,102044.50
2022-10-11T17:28:57.038Z,102048.34
2022-10-11T17:31:26.370Z,102046.91
2022-10-11T17:33:54.891Z,102048.91
2022-10-11T17:36:27.793Z,102052.19
2022-10-11T17:38:56.249Z,102050.53
2022-10-11T17:41:29.425Z,102055.03
2022-10-11T17:44:02.851Z,102045.88
2022-10-11T17:46:32.472Z,102062.97
2022-10-11T17:49:01.740Z,102062.41
2022-10-11T17:51:30.009Z,102062.41
2022-10-11T17:53:58.475Z,102067.59
2022-10-11T17:56:32.410Z,102058.84
2022-10-11T17:59:05.083Z,102062.69
2022-10-11T18:01:33.415Z,102059.81
2022-10-11T18:04:03.632Z,102059.06
2022-10-11T18:06:34.426Z,102060.22
2022-10-11T18:09:03.947Z,102056.03
2022-10-11T18:11:32.616Z,102054.44
2022-10-11T18:14:01.501Z,102060.47
2022-10-11T18:16:31.798Z,102059.59
2022-10-11T18:19:02.475Z,102059.47
2022-10-11T18:21:34.298Z,102065.50
2022-10-11T18:24:06.259Z,102060.53
2022-10-11T18:26:35.173Z,102068.66
2022-10-11T18:29:03.347Z,102066.88
2022-10-11T18:31:35.038Z,102062.19
2022-10-11T18:34:04.098Z,102070.47
2022-10-11T18:36:33.345Z,102064.78
2022-10-11T18:39:04.918Z,102067.97
2022-10-11T18:41:35.246Z,102065.78
2022-10-11T18:44:05.914Z,102067.03
2022-10-11T18:46:36.573Z,102076.22
2022-10-11T18:49:05.138Z,102072.66
2022-10-11T18:51:36.955Z,102072.53
2022-10-11T18:54:06.700Z,102069.63
2022-10-11T18:56:36.989Z,102068.91
2022-10-11T18:59:06.771Z,102070.63
2022-10-11T19:01:38.910Z,102073.31
2022-10-11T19:04:09.137Z,102082.56
2022-10-11T19:06:39.409Z,102074.91
2022-10-11T19:09:10.193Z,102071.63
2022-10-11T19:11:39.054Z,102075.16
2022-10-11T19:14:09.849Z,102068.88
2022-10-11T19:16:41.911Z,102074.31
2022-10-11T19:19:12.871Z,102077.81
2022-10-11T19:21:41.374Z,102069.16
2022-10-11T19:24:10.530Z,102068.47
2022-10-11T19:26:41.026Z,102066.53
2022-10-11T19:29:10.856Z,102070.00
2022-10-11T19:31:45.345Z,102069.06
2022-10-11T19:34:14.029Z,102072.38
2022-10-11T19:36:42.867Z,102063.75
2022-10-11T19:39:13.939Z,102074.84
2022-10-11T19:41:43.087Z,102071.53
2022-10-11T19:44:12.607Z,102068.59
2022-10-11T19:47:02.790Z,102078.81
2022-10-11T19:49:31.248Z,102071.91
2022-10-11T19:52:01.063Z,102074.34
2022-10-11T19:54:29.373Z,102082.34
2022-10-11T19:56:57.860Z,102075.53
2022-10-11T19:59:26.871Z,102071.84
2022-10-11T20:01:56.507Z,102070.97
2022-10-11T20:07:12.714Z,102084.56
2022-10-11T20:09:41.058Z,102078.13
2022-10-11T20:12:09.688Z,102081.72
2022-10-11T20:14:37.905Z,102079.50
2022-10-11T20:17:07.475Z,102075.75
2022-10-11T20:19:35.715Z,102076.59
2022-10-11T20:22:03.874Z,102074.16
2022-10-11T20:24:34.383Z,102077.16
2022-10-11T20:27:03.965Z,102083.09
2022-10-11T20:29:32.159Z,102085.72
2022-10-11T20:32:00.345Z,102090.81
2022-10-11T20:34:30.575Z,102087.66
2022-10-11T20:36:59.302Z,102088.56
2022-10-11T20:39:27.943Z,102085.88
2022-10-11T20:41:56.127Z,102087.94
2022-10-11T20:44:24.505Z,102094.88
2022-10-11T20:46:52.620Z,102092.16
2022-10-11T20:49:20.813Z,102093.13
2022-10-11T20:51:50.472Z,102095.97
2022-10-11T20:54:18.616Z,102099.47
2022-10-11T20:56:46.820Z,102095.34
2022-10-11T20:59:14.970Z,102093.41
2022-10-11T21:01:43.448Z,102096.75
2022-10-11T21:04:18.616Z,102092.44
2022-10-11T21:06:47.362Z,102098.59
2022-10-11T21:09:17.241Z,102102.41
2022-10-11T21:11:45.910Z,102101.81
2022-10-11T21:14:14.320Z,102098.13
2022-10-11T21:16:42.535Z,102105.47
2022-10-11T21:19:14.057Z,102109.91
2022-10-11T21:21:42.725Z,102108.88
2022-10-11T21:24:10.978Z,102108.75
2022-10-11T21:26:40.461Z,102107.91
2022-10-11T21:29:08.717Z,102113.16
2022-10-11T21:31:37.103Z,102110.44
2022-10-11T21:34:07.318Z,102107.81
2022-10-11T21:36:35.754Z,102113.06
2022-10-11T21:39:03.983Z,102115.97
2022-10-11T21:41:34.087Z,102108.09
2022-10-11T21:44:03.558Z,102113.28
2022-10-11T21:47:01.090Z,102116.69
2022-10-11T21:49:21.074Z,102116.75
2022-10-11T21:51:49.248Z,102118.88
2022-10-11T21:54:17.922Z,102117.81
2022-10-11T21:56:46.050Z,102112.63
2022-10-11T21:59:15.661Z,102115.25
2022-10-11T22:01:44.312Z,102099.47
2022-10-11T22:04:12.623Z,102117.03
2022-10-11T22:06:41.212Z,102114.25
2022-10-11T22:09:09.665Z,102116.16
2022-10-11T22:11:38.525Z,102114.41
2022-10-11T22:14:06.869Z,102110.00
2022-10-11T22:16:36.545Z,102113.56
2022-10-11T22:19:04.811Z,102112.75
2022-10-11T22:21:33.004Z,102113.63
2022-10-11T22:24:01.131Z,102111.88
2022-10-11T22:26:31.565Z,102107.34
2022-10-11T22:29:00.542Z,102104.09
2022-10-11T22:31:29.891Z,102106.50
2022-10-11T22:34:01.405Z,102104.94
2022-10-11T22:36:31.357Z,102108.53
2022-10-11T22:38:59.559Z,102102.31
2022-10-11T22:41:27.811Z,102111.16
2022-10-11T22:43:56.144Z,102108.59
2022-10-11T22:46:24.256Z,102107.00
2022-10-11T22:48:52.405Z,102107.13
2022-10-11T22:51:21.876Z,102108.59
2022-10-11T22:53:50.131Z,102107.91
2022-10-11T22:56:18.284Z,102107.97
2022-10-11T22:58:46.439Z,102107.25
2022-10-11T23:01:16.565Z,102091.59
2022-10-11T23:03:48.188Z,102102.03
2022-10-11T23:06:16.398Z,102097.69
2022-10-11T23:08:45.984Z,102097.47
2022-10-11T23:11:14.316Z,102089.78
2022-10-11T23:13:42.442Z,102093.09
2022-10-11T23:16:12.910Z,102091.66
2022-10-11T23:18:41.133Z,102095.06
2022-10-11T23:21:09.675Z,102088.84
2022-10-11T23:23:39.648Z,102095.19
2022-10-11T23:26:11.586Z,102102.34
2022-10-11T23:28:40.188Z,102097.09
2022-10-11T23:31:09.907Z,102102.25
2022-10-11T23:33:38.177Z,102100.53
2022-10-11T23:36:07.325Z,102108.31
2022-10-11T23:38:35.476Z,102106.72
2022-10-11T23:41:03.916Z,102106.69
2022-10-11T23:43:33.418Z,102110.88
2022-10-11T23:46:01.657Z,102110.06
2022-10-11T23:48:29.845Z,102116.13
2022-10-11T23:50:57.960Z,102107.31
2022-10-11T23:53:26.087Z,102111.78
2022-10-11T23:55:54.214Z,102112.75
2022-10-11T23:58:22.401Z,102114.59
